Aviation Digital Data Service (ADDS)

Output produced by METARs form (0951 UTC 20 September 2019)
found at http://aviationweather.gov/metar/data/
 
METAR text: KJOT 200935Z AUTO 00000KT 4SM BR SCT049 BKN110 21/21 A3010 RMK AO2 LTG DSNT SW T02050205
Conditions at: KJOT (JOLIET , IL, US) observed 0935 UTC 20 September 2019
Temperature: 20.5°C (69°F)
Dewpoint: 20.5°C (69°F) [RH = 100%]
Pressure (altimeter): 30.10 inches Hg (1019.4 mb)
Winds: calm
Visibility: 4 miles ( 6 km)
Ceiling: 11000 feet AGL
Clouds: scattered clouds at 4900 feet AGL
broken clouds at 11000 feet AGL
Weather: BR  (mist)